sensor_id;sensor_type;location;lat;lon;timestamp;P1;durP1;ratioP1;P2;durP2;ratioP2
13291;SDS011;6714;53.056;8.690;2023-06-24T00:01:59;7.23;;;5.13;;
13291;SDS011;6714;53.056;8.690;2023-06-24T00:04:41;5.13;;;4.73;;
13291;SDS011;6714;53.056;8.690;2023-06-24T00:07:23;5.80;;;4.67;;
13291;SDS011;6714;53.056;8.690;2023-06-24T00:10:07;5.30;;;4.70;;
13291;SDS011;6714;53.056;8.690;2023-06-24T00:12:50;5.80;;;5.20;;
13291;SDS011;6714;53.056;8.690;2023-06-24T00:15:33;7.83;;;5.70;;
13291;SDS011;6714;53.056;8.690;2023-06-24T00:18:15;5.40;;;5.00;;
13291;SDS011;6714;53.056;8.690;2023-06-24T00:20:57;6.20;;;5.70;;
13291;SDS011;6714;53.056;8.690;2023-06-24T00:23:41;6.77;;;5.47;;
13291;SDS011;6714;53.056;8.690;2023-06-24T00:26:23;7.83;;;5.30;;
13291;SDS011;6714;53.056;8.690;2023-06-24T00:29:07;7.17;;;5.60;;
13291;SDS011;6714;53.056;8.690;2023-06-24T00:31:49;5.97;;;5.40;;
13291;SDS011;6714;53.056;8.690;2023-06-24T00:34:31;6.63;;;6.03;;
13291;SDS011;6714;53.056;8.690;2023-06-24T00:37:14;6.27;;;5.57;;
13291;SDS011;6714;53.056;8.690;2023-06-24T00:39:56;5.93;;;5.33;;
13291;SDS011;6714;53.056;8.690;2023-06-24T00:42:38;6.13;;;5.57;;
13291;SDS011;6714;53.056;8.690;2023-06-24T00:45:22;6.83;;;6.07;;
13291;SDS011;6714;53.056;8.690;2023-06-24T00:48:04;5.63;;;5.17;;
13291;SDS011;6714;53.056;8.690;2023-06-24T00:50:47;7.07;;;6.37;;
13291;SDS011;6714;53.056;8.690;2023-06-24T00:53:29;6.30;;;5.73;;
13291;SDS011;6714;53.056;8.690;2023-06-24T00:56:12;7.10;;;6.23;;
13291;SDS011;6714;53.056;8.690;2023-06-24T00:58:54;6.57;;;5.90;;
13291;SDS011;6714;53.056;8.690;2023-06-24T01:01:39;6.50;;;5.90;;
13291;SDS011;6714;53.056;8.690;2023-06-24T01:04:21;5.87;;;5.37;;
13291;SDS011;6714;53.056;8.690;2023-06-24T01:07:05;6.70;;;6.10;;
13291;SDS011;6714;53.056;8.690;2023-06-24T01:09:47;6.47;;;5.87;;
13291;SDS011;6714;53.056;8.690;2023-06-24T01:12:29;7.43;;;6.53;;
13291;SDS011;6714;53.056;8.690;2023-06-24T01:15:11;7.77;;;6.97;;
13291;SDS011;6714;53.056;8.690;2023-06-24T01:17:56;8.43;;;7.20;;
13291;SDS011;6714;53.056;8.690;2023-06-24T01:20:41;8.37;;;6.60;;
13291;SDS011;6714;53.056;8.690;2023-06-24T01:29:34;7.93;;;6.40;;
13291;SDS011;6714;53.056;8.690;2023-06-24T01:32:21;7.67;;;6.67;;
13291;SDS011;6714;53.056;8.690;2023-06-24T01:35:11;6.93;;;6.23;;
13291;SDS011;6714;53.056;8.690;2023-06-24T01:37:54;7.20;;;6.50;;
13291;SDS011;6714;53.056;8.690;2023-06-24T01:40:39;7.53;;;6.60;;
13291;SDS011;6714;53.056;8.690;2023-06-24T01:43:23;8.03;;;7.10;;
13291;SDS011;6714;53.056;8.690;2023-06-24T01:46:06;8.53;;;7.53;;
13291;SDS011;6714;53.056;8.690;2023-06-24T01:48:51;9.13;;;7.93;;
13291;SDS011;6714;53.056;8.690;2023-06-24T01:51:34;10.43;;;8.33;;
13291;SDS011;6714;53.056;8.690;2023-06-24T01:54:17;10.30;;;9.30;;
13291;SDS011;6714;53.056;8.690;2023-06-24T01:57:00;9.23;;;8.23;;
13291;SDS011;6714;53.056;8.690;2023-06-24T01:59:45;10.67;;;9.57;;
13291;SDS011;6714;53.056;8.690;2023-06-24T02:02:28;9.50;;;8.50;;
13291;SDS011;6714;53.056;8.690;2023-06-24T02:05:12;10.93;;;9.43;;
13291;SDS011;6714;53.056;8.690;2023-06-24T02:07:55;10.07;;;9.00;;
13291;SDS011;6714;53.056;8.690;2023-06-24T02:10:37;12.50;;;9.83;;
13291;SDS011;6714;53.056;8.690;2023-06-24T02:13:20;11.27;;;8.67;;
13291;SDS011;6714;53.056;8.690;2023-06-24T02:16:03;9.23;;;8.40;;
13291;SDS011;6714;53.056;8.690;2023-06-24T02:18:46;9.97;;;8.93;;
13291;SDS011;6714;53.056;8.690;2023-06-24T02:21:30;9.30;;;8.40;;
13291;SDS011;6714;53.056;8.690;2023-06-24T02:24:12;9.67;;;7.87;;
13291;SDS011;6714;53.056;8.690;2023-06-24T02:26:56;9.77;;;8.47;;
13291;SDS011;6714;53.056;8.690;2023-06-24T02:29:39;9.07;;;8.20;;
13291;SDS011;6714;53.056;8.690;2023-06-24T02:32:21;8.10;;;7.30;;
13291;SDS011;6714;53.056;8.690;2023-06-24T02:37:48;9.77;;;7.70;;
13291;SDS011;6714;53.056;8.690;2023-06-24T02:40:30;7.20;;;6.50;;
13291;SDS011;6714;53.056;8.690;2023-06-24T02:43:13;8.03;;;7.23;;
13291;SDS011;6714;53.056;8.690;2023-06-24T02:45:55;7.87;;;7.07;;
13291;SDS011;6714;53.056;8.690;2023-06-24T02:48:38;8.00;;;7.30;;
13291;SDS011;6714;53.056;8.690;2023-06-24T02:51:20;8.33;;;7.50;;
13291;SDS011;6714;53.056;8.690;2023-06-24T02:54:04;7.77;;;7.00;;
13291;SDS011;6714;53.056;8.690;2023-06-24T02:56:46;8.03;;;7.23;;
13291;SDS011;6714;53.056;8.690;2023-06-24T02:59:29;8.33;;;6.93;;
13291;SDS011;6714;53.056;8.690;2023-06-24T03:02:11;7.10;;;6.40;;
13291;SDS011;6714;53.056;8.690;2023-06-24T03:04:55;6.40;;;5.80;;
13291;SDS011;6714;53.056;8.690;2023-06-24T03:07:38;6.80;;;6.10;;
13291;SDS011;6714;53.056;8.690;2023-06-24T03:10:24;7.00;;;6.40;;
13291;SDS011;6714;53.056;8.690;2023-06-24T03:13:06;6.90;;;6.30;;
13291;SDS011;6714;53.056;8.690;2023-06-24T03:15:48;7.77;;;7.07;;
13291;SDS011;6714;53.056;8.690;2023-06-24T03:18:30;7.27;;;6.60;;
13291;SDS011;6714;53.056;8.690;2023-06-24T03:21:12;7.77;;;7.07;;
13291;SDS011;6714;53.056;8.690;2023-06-24T03:23:55;7.37;;;6.67;;
13291;SDS011;6714;53.056;8.690;2023-06-24T03:26:40;7.03;;;6.43;;
13291;SDS011;6714;53.056;8.690;2023-06-24T03:29:22;7.23;;;6.57;;
13291;SDS011;6714;53.056;8.690;2023-06-24T03:32:05;8.40;;;6.60;;
13291;SDS011;6714;53.056;8.690;2023-06-24T03:34:47;7.23;;;6.50;;
13291;SDS011;6714;53.056;8.690;2023-06-24T03:37:29;8.00;;;7.13;;
13291;SDS011;6714;53.056;8.690;2023-06-24T03:40:12;8.27;;;7.47;;
13291;SDS011;6714;53.056;8.690;2023-06-24T03:42:56;7.97;;;7.17;;
13291;SDS011;6714;53.056;8.690;2023-06-24T03:45:38;7.13;;;6.43;;
13291;SDS011;6714;53.056;8.690;2023-06-24T03:48:20;7.60;;;6.80;;
13291;SDS011;6714;53.056;8.690;2023-06-24T03:51:02;8.07;;;7.37;;
13291;SDS011;6714;53.056;8.690;2023-06-24T03:53:45;7.63;;;6.93;;
13291;SDS011;6714;53.056;8.690;2023-06-24T03:56:27;7.87;;;6.47;;
13291;SDS011;6714;53.056;8.690;2023-06-24T03:59:10;7.10;;;6.37;;
13291;SDS011;6714;53.056;8.690;2023-06-24T04:01:53;7.80;;;7.03;;
13291;SDS011;6714;53.056;8.690;2023-06-24T04:04:35;7.90;;;7.20;;
13291;SDS011;6714;53.056;8.690;2023-06-24T04:07:17;7.77;;;7.07;;
13291;SDS011;6714;53.056;8.690;2023-06-24T04:10:08;8.23;;;7.47;;
13291;SDS011;6714;53.056;8.690;2023-06-24T04:12:50;8.67;;;7.37;;
13291;SDS011;6714;53.056;8.690;2023-06-24T04:15:34;8.13;;;7.43;;
13291;SDS011;6714;53.056;8.690;2023-06-24T04:18:16;8.07;;;7.37;;
13291;SDS011;6714;53.056;8.690;2023-06-24T04:20:59;9.00;;;7.63;;
13291;SDS011;6714;53.056;8.690;2023-06-24T04:23:41;9.47;;;8.47;;
13291;SDS011;6714;53.056;8.690;2023-06-24T04:26:23;7.80;;;7.10;;
13291;SDS011;6714;53.056;8.690;2023-06-24T04:29:05;8.93;;;8.13;;
13291;SDS011;6714;53.056;8.690;2023-06-24T04:31:49;9.70;;;8.70;;
13291;SDS011;6714;53.056;8.690;2023-06-24T04:34:31;8.33;;;7.30;;
13291;SDS011;6714;53.056;8.690;2023-06-24T04:37:13;8.97;;;8.07;;
13291;SDS011;6714;53.056;8.690;2023-06-24T04:39:55;8.93;;;8.03;;
13291;SDS011;6714;53.056;8.690;2023-06-24T04:42:38;8.83;;;7.93;;
13291;SDS011;6714;53.056;8.690;2023-06-24T04:45:20;8.93;;;8.07;;
13291;SDS011;6714;53.056;8.690;2023-06-24T04:48:04;8.73;;;7.83;;
13291;SDS011;6714;53.056;8.690;2023-06-24T04:50:46;11.30;;;9.23;;
13291;SDS011;6714;53.056;8.690;2023-06-24T04:53:28;10.40;;;9.30;;
13291;SDS011;6714;53.056;8.690;2023-06-24T04:56:10;9.07;;;8.27;;
13291;SDS011;6714;53.056;8.690;2023-06-24T04:58:52;8.63;;;7.83;;
13291;SDS011;6714;53.056;8.690;2023-06-24T05:01:35;10.47;;;9.47;;
13291;SDS011;6714;53.056;8.690;2023-06-24T05:04:18;9.17;;;8.27;;
13291;SDS011;6714;53.056;8.690;2023-06-24T05:07:00;10.00;;;9.00;;
13291;SDS011;6714;53.056;8.690;2023-06-24T05:09:42;9.60;;;8.70;;
13291;SDS011;6714;53.056;8.690;2023-06-24T05:12:25;9.33;;;8.07;;
13291;SDS011;6714;53.056;8.690;2023-06-24T05:15:07;8.70;;;7.80;;
13291;SDS011;6714;53.056;8.690;2023-06-24T05:17:49;10.97;;;9.77;;
13291;SDS011;6714;53.056;8.690;2023-06-24T05:20:33;10.27;;;9.27;;
13291;SDS011;6714;53.056;8.690;2023-06-24T05:23:15;10.57;;;9.03;;
13291;SDS011;6714;53.056;8.690;2023-06-24T05:25:57;10.20;;;9.17;;
13291;SDS011;6714;53.056;8.690;2023-06-24T05:28:39;11.50;;;9.97;;
13291;SDS011;6714;53.056;8.690;2023-06-24T05:31:21;10.47;;;9.23;;
13291;SDS011;6714;53.056;8.690;2023-06-24T05:34:04;11.70;;;10.00;;
13291;SDS011;6714;53.056;8.690;2023-06-24T05:36:47;11.20;;;8.73;;
13291;SDS011;6714;53.056;8.690;2023-06-24T05:39:29;8.70;;;7.90;;
13291;SDS011;6714;53.056;8.690;2023-06-24T05:42:12;11.10;;;9.20;;
13291;SDS011;6714;53.056;8.690;2023-06-24T05:44:54;11.30;;;9.70;;
13291;SDS011;6714;53.056;8.690;2023-06-24T05:47:36;9.40;;;8.53;;
13291;SDS011;6714;53.056;8.690;2023-06-24T05:50:19;9.27;;;8.37;;
13291;SDS011;6714;53.056;8.690;2023-06-24T05:53:03;10.93;;;9.27;;
13291;SDS011;6714;53.056;8.690;2023-06-24T05:55:45;10.90;;;8.60;;
13291;SDS011;6714;53.056;8.690;2023-06-24T05:58:27;8.73;;;7.93;;
13291;SDS011;6714;53.056;8.690;2023-06-24T06:01:09;7.73;;;6.87;;
13291;SDS011;6714;53.056;8.690;2023-06-24T06:03:52;9.03;;;7.43;;
13291;SDS011;6714;53.056;8.690;2023-06-24T06:06:34;8.20;;;7.40;;
13291;SDS011;6714;53.056;8.690;2023-06-24T06:09:17;7.17;;;6.47;;
13291;SDS011;6714;53.056;8.690;2023-06-24T06:12:00;6.93;;;6.03;;
13291;SDS011;6714;53.056;8.690;2023-06-24T06:14:42;8.53;;;7.67;;
13291;SDS011;6714;53.056;8.690;2023-06-24T06:17:24;8.23;;;7.43;;
13291;SDS011;6714;53.056;8.690;2023-06-24T06:20:06;9.00;;;7.13;;
13291;SDS011;6714;53.056;8.690;2023-06-24T06:22:49;8.37;;;7.60;;
13291;SDS011;6714;53.056;8.690;2023-06-24T06:25:32;8.33;;;7.53;;
13291;SDS011;6714;53.056;8.690;2023-06-24T06:28:14;10.73;;;8.53;;
13291;SDS011;6714;53.056;8.690;2023-06-24T06:30:57;8.40;;;7.27;;
13291;SDS011;6714;53.056;8.690;2023-06-24T06:33:39;7.47;;;6.70;;
13291;SDS011;6714;53.056;8.690;2023-06-24T06:36:21;7.80;;;7.00;;
13291;SDS011;6714;53.056;8.690;2023-06-24T06:39:04;9.07;;;8.03;;
13291;SDS011;6714;53.056;8.690;2023-06-24T06:41:48;8.43;;;7.53;;
13291;SDS011;6714;53.056;8.690;2023-06-24T06:44:30;7.60;;;7.00;;
13291;SDS011;6714;53.056;8.690;2023-06-24T06:47:12;7.10;;;6.43;;
13291;SDS011;6714;53.056;8.690;2023-06-24T06:49:54;7.37;;;6.67;;
13291;SDS011;6714;53.056;8.690;2023-06-24T06:52:36;7.10;;;6.40;;
13291;SDS011;6714;53.056;8.690;2023-06-24T06:55:19;6.70;;;6.10;;
13291;SDS011;6714;53.056;8.690;2023-06-24T06:58:02;7.63;;;6.47;;
13291;SDS011;6714;53.056;8.690;2023-06-24T07:00:45;7.90;;;6.40;;
13291;SDS011;6714;53.056;8.690;2023-06-24T07:03:27;6.80;;;6.10;;
13291;SDS011;6714;53.056;8.690;2023-06-24T07:06:10;7.50;;;6.40;;
13291;SDS011;6714;53.056;8.690;2023-06-24T07:08:52;6.33;;;5.77;;
13291;SDS011;6714;53.056;8.690;2023-06-24T07:11:34;7.93;;;7.13;;
13291;SDS011;6714;53.056;8.690;2023-06-24T07:14:18;6.47;;;5.87;;
13291;SDS011;6714;53.056;8.690;2023-06-24T07:17:00;6.60;;;5.87;;
13291;SDS011;6714;53.056;8.690;2023-06-24T07:19:42;6.97;;;5.00;;
13291;SDS011;6714;53.056;8.690;2023-06-24T07:22:24;6.07;;;5.53;;
13291;SDS011;6714;53.056;8.690;2023-06-24T07:25:07;5.90;;;5.40;;
13291;SDS011;6714;53.056;8.690;2023-06-24T07:27:49;5.07;;;4.67;;
13291;SDS011;6714;53.056;8.690;2023-06-24T07:30:32;6.20;;;5.70;;
13291;SDS011;6714;53.056;8.690;2023-06-24T07:33:15;6.73;;;5.30;;
13291;SDS011;6714;53.056;8.690;2023-06-24T07:35:57;7.10;;;5.60;;
13291;SDS011;6714;53.056;8.690;2023-06-24T07:38:39;6.50;;;5.90;;
13291;SDS011;6714;53.056;8.690;2023-06-24T07:41:22;5.53;;;5.00;;
13291;SDS011;6714;53.056;8.690;2023-06-24T07:44:04;5.70;;;5.20;;
13291;SDS011;6714;53.056;8.690;2023-06-24T07:46:48;5.93;;;5.43;;
13291;SDS011;6714;53.056;8.690;2023-06-24T07:49:31;7.63;;;5.90;;
13291;SDS011;6714;53.056;8.690;2023-06-24T07:52:13;5.53;;;4.73;;
13291;SDS011;6714;53.056;8.690;2023-06-24T07:54:55;5.37;;;4.87;;
13291;SDS011;6714;53.056;8.690;2023-06-24T07:57:37;5.63;;;5.13;;
13291;SDS011;6714;53.056;8.690;2023-06-24T08:00:19;6.50;;;5.90;;
13291;SDS011;6714;53.056;8.690;2023-06-24T08:03:03;5.63;;;5.07;;
13291;SDS011;6714;53.056;8.690;2023-06-24T08:05:45;5.83;;;5.27;;
13291;SDS011;6714;53.056;8.690;2023-06-24T08:08:29;7.07;;;5.60;;
13291;SDS011;6714;53.056;8.690;2023-06-24T08:11:11;5.40;;;4.93;;
13291;SDS011;6714;53.056;8.690;2023-06-24T08:13:54;5.23;;;4.60;;
13291;SDS011;6714;53.056;8.690;2023-06-24T08:16:36;5.40;;;5.00;;
13291;SDS011;6714;53.056;8.690;2023-06-24T08:19:20;5.40;;;4.87;;
13291;SDS011;6714;53.056;8.690;2023-06-24T08:22:03;5.27;;;4.87;;
13291;SDS011;6714;53.056;8.690;2023-06-24T08:24:45;5.17;;;4.73;;
13291;SDS011;6714;53.056;8.690;2023-06-24T08:27:28;5.20;;;4.70;;
13291;SDS011;6714;53.056;8.690;2023-06-24T08:30:10;4.50;;;4.10;;
13291;SDS011;6714;53.056;8.690;2023-06-24T08:32:52;4.73;;;4.33;;
13291;SDS011;6714;53.056;8.690;2023-06-24T08:35:36;4.33;;;3.93;;
13291;SDS011;6714;53.056;8.690;2023-06-24T08:38:19;5.00;;;4.50;;
13291;SDS011;6714;53.056;8.690;2023-06-24T08:41:01;4.73;;;4.33;;
13291;SDS011;6714;53.056;8.690;2023-06-24T08:43:44;5.07;;;4.67;;
13291;SDS011;6714;53.056;8.690;2023-06-24T08:46:26;4.97;;;4.47;;
13291;SDS011;6714;53.056;8.690;2023-06-24T08:49:12;4.77;;;4.37;;
13291;SDS011;6714;53.056;8.690;2023-06-24T08:52:00;4.33;;;3.93;;
13291;SDS011;6714;53.056;8.690;2023-06-24T08:54:45;5.17;;;4.43;;
13291;SDS011;6714;53.056;8.690;2023-06-24T08:57:28;4.03;;;3.73;;
13291;SDS011;6714;53.056;8.690;2023-06-24T09:00:11;4.20;;;3.90;;
13291;SDS011;6714;53.056;8.690;2023-06-24T09:02:53;4.87;;;4.30;;
13291;SDS011;6714;53.056;8.690;2023-06-24T09:05:35;4.10;;;3.87;;
13291;SDS011;6714;53.056;8.690;2023-06-24T09:08:19;4.78;;;3.63;;
13291;SDS011;6714;53.056;8.690;2023-06-24T09:11:02;4.28;;;3.95;;
13291;SDS011;6714;53.056;8.690;2023-06-24T09:13:44;3.75;;;3.45;;
13291;SDS011;6714;53.056;8.690;2023-06-24T09:16:26;4.20;;;3.78;;
13291;SDS011;6714;53.056;8.690;2023-06-24T09:19:08;4.13;;;3.83;;
13291;SDS011;6714;53.056;8.690;2023-06-24T09:21:51;4.22;;;3.83;;
13291;SDS011;6714;53.056;8.690;2023-06-24T09:24:35;4.13;;;3.85;;
13291;SDS011;6714;53.056;8.690;2023-06-24T09:27:17;4.00;;;3.70;;
13291;SDS011;6714;53.056;8.690;2023-06-24T09:30:04;3.30;;;3.10;;
13291;SDS011;6714;53.056;8.690;2023-06-24T09:32:59;3.50;;;3.30;;
13291;SDS011;6714;53.056;8.690;2023-06-24T09:35:41;3.78;;;3.58;;
13291;SDS011;6714;53.056;8.690;2023-06-24T09:38:31;4.40;;;4.10;;
13291;SDS011;6714;53.056;8.690;2023-06-24T09:41:15;3.53;;;3.33;;
13291;SDS011;6714;53.056;8.690;2023-06-24T09:43:57;3.75;;;3.50;;
13291;SDS011;6714;53.056;8.690;2023-06-24T09:46:40;3.25;;;3.15;;
13291;SDS011;6714;53.056;8.690;2023-06-24T09:49:22;3.67;;;3.38;;
13291;SDS011;6714;53.056;8.690;2023-06-24T09:52:05;3.65;;;3.35;;
13291;SDS011;6714;53.056;8.690;2023-06-24T09:54:50;3.80;;;3.50;;
13291;SDS011;6714;53.056;8.690;2023-06-24T09:57:34;3.40;;;3.22;;
13291;SDS011;6714;53.056;8.690;2023-06-24T10:00:17;3.55;;;3.25;;
13291;SDS011;6714;53.056;8.690;2023-06-24T10:03:00;3.42;;;3.17;;
13291;SDS011;6714;53.056;8.690;2023-06-24T10:05:43;4.70;;;4.30;;
13291;SDS011;6714;53.056;8.690;2023-06-24T10:08:26;3.80;;;3.50;;
13291;SDS011;6714;53.056;8.690;2023-06-24T10:11:09;3.75;;;3.50;;
13291;SDS011;6714;53.056;8.690;2023-06-24T10:13:52;3.38;;;3.17;;
13291;SDS011;6714;53.056;8.690;2023-06-24T10:16:34;3.90;;;3.65;;
13291;SDS011;6714;53.056;8.690;2023-06-24T10:19:18;3.08;;;2.97;;
13291;SDS011;6714;53.056;8.690;2023-06-24T10:22:02;3.90;;;3.60;;
13291;SDS011;6714;53.056;8.690;2023-06-24T10:24:45;3.38;;;3.17;;
13291;SDS011;6714;53.056;8.690;2023-06-24T10:27:28;3.40;;;3.20;;
13291;SDS011;6714;53.056;8.690;2023-06-24T10:30:17;3.78;;;3.50;;
13291;SDS011;6714;53.056;8.690;2023-06-24T10:33:00;3.53;;;3.22;;
13291;SDS011;6714;53.056;8.690;2023-06-24T10:35:42;3.40;;;3.20;;
13291;SDS011;6714;53.056;8.690;2023-06-24T10:38:24;3.15;;;2.95;;
13291;SDS011;6714;53.056;8.690;2023-06-24T10:41:14;3.53;;;3.30;;
13291;SDS011;6714;53.056;8.690;2023-06-24T10:43:58;3.58;;;3.38;;
13291;SDS011;6714;53.056;8.690;2023-06-24T10:46:42;3.85;;;3.55;;
13291;SDS011;6714;53.056;8.690;2023-06-24T10:49:24;3.45;;;3.25;;
13291;SDS011;6714;53.056;8.690;2023-06-24T10:52:07;3.33;;;3.13;;
13291;SDS011;6714;53.056;8.690;2023-06-24T10:54:50;2.78;;;2.67;;
13291;SDS011;6714;53.056;8.690;2023-06-24T10:57:32;3.38;;;3.20;;
13291;SDS011;6714;53.056;8.690;2023-06-24T11:00:15;2.75;;;2.65;;
13291;SDS011;6714;53.056;8.690;2023-06-24T11:03:07;3.70;;;3.50;;
13291;SDS011;6714;53.056;8.690;2023-06-24T11:05:49;3.88;;;3.60;;
13291;SDS011;6714;53.056;8.690;2023-06-24T11:08:31;3.42;;;3.22;;
13291;SDS011;6714;53.056;8.690;2023-06-24T11:11:19;3.08;;;2.92;;
13291;SDS011;6714;53.056;8.690;2023-06-24T11:14:02;3.30;;;3.10;;
13291;SDS011;6714;53.056;8.690;2023-06-24T11:16:45;3.40;;;3.20;;
13291;SDS011;6714;53.056;8.690;2023-06-24T11:19:28;3.33;;;3.13;;
13291;SDS011;6714;53.056;8.690;2023-06-24T11:22:11;3.28;;;3.08;;
13291;SDS011;6714;53.056;8.690;2023-06-24T11:24:53;3.25;;;3.10;;
13291;SDS011;6714;53.056;8.690;2023-06-24T11:27:36;3.15;;;3.05;;
13291;SDS011;6714;53.056;8.690;2023-06-24T11:30:18;3.72;;;3.53;;
13291;SDS011;6714;53.056;8.690;2023-06-24T11:33:00;3.17;;;3.08;;
13291;SDS011;6714;53.056;8.690;2023-06-24T11:35:44;3.38;;;3.17;;
13291;SDS011;6714;53.056;8.690;2023-06-24T11:38:27;3.25;;;3.05;;
13291;SDS011;6714;53.056;8.690;2023-06-24T11:41:12;3.30;;;3.15;;
13291;SDS011;6714;53.056;8.690;2023-06-24T11:43:54;3.00;;;2.90;;
13291;SDS011;6714;53.056;8.690;2023-06-24T11:46:41;3.20;;;3.00;;
13291;SDS011;6714;53.056;8.690;2023-06-24T11:49:24;3.22;;;3.05;;
13291;SDS011;6714;53.056;8.690;2023-06-24T11:52:07;3.08;;;2.97;;
13291;SDS011;6714;53.056;8.690;2023-06-24T11:54:50;2.88;;;2.75;;
13291;SDS011;6714;53.056;8.690;2023-06-24T11:57:51;3.10;;;3.00;;
13291;SDS011;6714;53.056;8.690;2023-06-24T12:00:35;3.47;;;3.28;;
13291;SDS011;6714;53.056;8.690;2023-06-24T12:03:17;3.25;;;3.05;;
13291;SDS011;6714;53.056;8.690;2023-06-24T12:05:59;3.38;;;3.17;;
13291;SDS011;6714;53.056;8.690;2023-06-24T12:08:43;3.10;;;3.00;;
13291;SDS011;6714;53.056;8.690;2023-06-24T12:11:25;3.15;;;2.95;;
13291;SDS011;6714;53.056;8.690;2023-06-24T12:14:07;3.33;;;3.13;;
13291;SDS011;6714;53.056;8.690;2023-06-24T12:16:49;3.03;;;2.90;;
13291;SDS011;6714;53.056;8.690;2023-06-24T12:19:31;3.15;;;3.05;;
13291;SDS011;6714;53.056;8.690;2023-06-24T12:22:14;2.97;;;2.88;;
13291;SDS011;6714;53.056;8.690;2023-06-24T12:24:57;3.42;;;3.22;;
13291;SDS011;6714;53.056;8.690;2023-06-24T12:27:41;3.00;;;2.90;;
13291;SDS011;6714;53.056;8.690;2023-06-24T12:30:24;3.35;;;3.15;;
13291;SDS011;6714;53.056;8.690;2023-06-24T12:33:06;3.65;;;3.45;;
13291;SDS011;6714;53.056;8.690;2023-06-24T12:35:48;3.35;;;3.20;;
13291;SDS011;6714;53.056;8.690;2023-06-24T12:38:31;3.60;;;3.40;;
13291;SDS011;6714;53.056;8.690;2023-06-24T12:41:14;3.40;;;3.20;;
13291;SDS011;6714;53.056;8.690;2023-06-24T12:43:56;3.17;;;2.97;;
13291;SDS011;6714;53.056;8.690;2023-06-24T12:46:39;3.10;;;3.00;;
13291;SDS011;6714;53.056;8.690;2023-06-24T12:49:21;3.50;;;3.30;;
13291;SDS011;6714;53.056;8.690;2023-06-24T12:52:03;3.53;;;3.33;;
13291;SDS011;6714;53.056;8.690;2023-06-24T12:54:45;3.67;;;3.47;;
13291;SDS011;6714;53.056;8.690;2023-06-24T12:57:29;3.65;;;3.45;;
13291;SDS011;6714;53.056;8.690;2023-06-24T13:00:11;3.65;;;3.45;;
13291;SDS011;6714;53.056;8.690;2023-06-24T13:02:54;3.15;;;3.00;;
13291;SDS011;6714;53.056;8.690;2023-06-24T13:05:36;3.50;;;3.30;;
13291;SDS011;6714;53.056;8.690;2023-06-24T13:08:18;3.22;;;3.03;;
13291;SDS011;6714;53.056;8.690;2023-06-24T13:11:00;3.60;;;3.40;;
13291;SDS011;6714;53.056;8.690;2023-06-24T13:13:44;3.50;;;3.30;;
13291;SDS011;6714;53.056;8.690;2023-06-24T13:16:26;3.78;;;3.58;;
13291;SDS011;6714;53.056;8.690;2023-06-24T13:19:08;3.80;;;3.60;;
13291;SDS011;6714;53.056;8.690;2023-06-24T13:21:51;3.55;;;3.38;;
13291;SDS011;6714;53.056;8.690;2023-06-24T13:24:33;3.50;;;3.30;;
13291;SDS011;6714;53.056;8.690;2023-06-24T13:27:15;3.70;;;3.50;;
13291;SDS011;6714;53.056;8.690;2023-06-24T13:29:59;3.83;;;3.53;;
13291;SDS011;6714;53.056;8.690;2023-06-24T13:32:42;3.95;;;3.75;;
13291;SDS011;6714;53.056;8.690;2023-06-24T13:35:25;3.85;;;3.65;;
13291;SDS011;6714;53.056;8.690;2023-06-24T13:38:07;3.50;;;3.30;;
13291;SDS011;6714;53.056;8.690;2023-06-24T13:40:49;3.33;;;3.13;;
13291;SDS011;6714;53.056;8.690;2023-06-24T13:43:32;3.50;;;3.30;;
13291;SDS011;6714;53.056;8.690;2023-06-24T13:46:15;3.78;;;3.50;;
13291;SDS011;6714;53.056;8.690;2023-06-24T13:48:57;3.55;;;3.30;;
13291;SDS011;6714;53.056;8.690;2023-06-24T13:51:40;4.25;;;3.95;;
13291;SDS011;6714;53.056;8.690;2023-06-24T13:54:22;3.80;;;3.60;;
13291;SDS011;6714;53.056;8.690;2023-06-24T13:57:05;3.80;;;3.60;;
13291;SDS011;6714;53.056;8.690;2023-06-24T13:59:47;4.20;;;3.90;;
13291;SDS011;6714;53.056;8.690;2023-06-24T14:02:31;3.63;;;3.50;;
13291;SDS011;6714;53.056;8.690;2023-06-24T14:05:14;3.97;;;3.78;;
13291;SDS011;6714;53.056;8.690;2023-06-24T14:07:56;3.95;;;3.75;;
13291;SDS011;6714;53.056;8.690;2023-06-24T14:10:38;3.78;;;3.58;;
13291;SDS011;6714;53.056;8.690;2023-06-24T14:13:20;3.92;;;3.72;;
13291;SDS011;6714;53.056;8.690;2023-06-24T14:16:04;4.20;;;3.90;;
13291;SDS011;6714;53.056;8.690;2023-06-24T14:18:48;4.40;;;4.10;;
13291;SDS011;6714;53.056;8.690;2023-06-24T14:21:30;4.15;;;3.95;;
13291;SDS011;6714;53.056;8.690;2023-06-24T14:24:12;4.10;;;3.90;;
13291;SDS011;6714;53.056;8.690;2023-06-24T14:26:54;4.43;;;4.20;;
13291;SDS011;6714;53.056;8.690;2023-06-24T14:29:36;4.07;;;3.85;;
13291;SDS011;6714;53.056;8.690;2023-06-24T14:32:19;4.00;;;3.80;;
13291;SDS011;6714;53.056;8.690;2023-06-24T14:35:02;4.20;;;4.00;;
13291;SDS011;6714;53.056;8.690;2023-06-24T14:37:45;4.28;;;4.00;;
13291;SDS011;6714;53.056;8.690;2023-06-24T14:40:27;4.00;;;3.80;;
13291;SDS011;6714;53.056;8.690;2023-06-24T14:43:09;4.55;;;4.25;;
13291;SDS011;6714;53.056;8.690;2023-06-24T14:45:51;3.90;;;3.60;;
13291;SDS011;6714;53.056;8.690;2023-06-24T14:48:33;4.57;;;4.28;;
13291;SDS011;6714;53.056;8.690;2023-06-24T14:51:17;4.13;;;3.80;;
13291;SDS011;6714;53.056;8.690;2023-06-24T14:53:59;3.95;;;3.75;;
13291;SDS011;6714;53.056;8.690;2023-06-24T14:56:42;3.78;;;3.58;;
13291;SDS011;6714;53.056;8.690;2023-06-24T14:59:24;4.28;;;4.07;;
13291;SDS011;6714;53.056;8.690;2023-06-24T15:02:06;3.70;;;3.50;;
13291;SDS011;6714;53.056;8.690;2023-06-24T15:04:48;4.10;;;3.90;;
13291;SDS011;6714;53.056;8.690;2023-06-24T15:07:32;3.78;;;3.67;;
13291;SDS011;6714;53.056;8.690;2023-06-24T15:10:14;3.60;;;3.38;;
13291;SDS011;6714;53.056;8.690;2023-06-24T15:12:56;4.00;;;3.80;;
13291;SDS011;6714;53.056;8.690;2023-06-24T15:15:38;4.00;;;3.80;;
13291;SDS011;6714;53.056;8.690;2023-06-24T15:18:21;4.28;;;4.07;;
13291;SDS011;6714;53.056;8.690;2023-06-24T15:21:03;3.90;;;3.70;;
13291;SDS011;6714;53.056;8.690;2023-06-24T15:23:47;4.00;;;3.80;;
13291;SDS011;6714;53.056;8.690;2023-06-24T15:26:29;3.95;;;3.75;;
13291;SDS011;6714;53.056;8.690;2023-06-24T15:29:11;3.80;;;3.60;;
13291;SDS011;6714;53.056;8.690;2023-06-24T15:31:53;4.20;;;4.00;;
13291;SDS011;6714;53.056;8.690;2023-06-24T15:34:35;4.00;;;3.80;;
13291;SDS011;6714;53.056;8.690;2023-06-24T15:37:18;4.35;;;4.07;;
13291;SDS011;6714;53.056;8.690;2023-06-24T15:40:01;4.10;;;3.90;;
13291;SDS011;6714;53.056;8.690;2023-06-24T15:42:43;3.97;;;3.78;;
13291;SDS011;6714;53.056;8.690;2023-06-24T15:45:26;4.88;;;4.47;;
13291;SDS011;6714;53.056;8.690;2023-06-24T15:48:08;4.50;;;4.30;;
13291;SDS011;6714;53.056;8.690;2023-06-24T15:50:50;3.88;;;3.67;;
13291;SDS011;6714;53.056;8.690;2023-06-24T15:53:32;4.32;;;4.03;;
13291;SDS011;6714;53.056;8.690;2023-06-24T15:56:16;4.07;;;3.88;;
13291;SDS011;6714;53.056;8.690;2023-06-24T15:58:58;4.03;;;3.83;;
13291;SDS011;6714;53.056;8.690;2023-06-24T16:01:41;4.57;;;4.28;;
13291;SDS011;6714;53.056;8.690;2023-06-24T16:04:23;4.28;;;4.07;;
13291;SDS011;6714;53.056;8.690;2023-06-24T16:07:05;5.00;;;3.97;;
13291;SDS011;6714;53.056;8.690;2023-06-24T16:09:47;4.28;;;4.07;;
13291;SDS011;6714;53.056;8.690;2023-06-24T16:12:31;4.00;;;3.78;;
13291;SDS011;6714;53.056;8.690;2023-06-24T16:15:16;4.38;;;4.15;;
13291;SDS011;6714;53.056;8.690;2023-06-24T16:17:58;4.93;;;4.53;;
13291;SDS011;6714;53.056;8.690;2023-06-24T16:20:40;5.10;;;4.70;;
13291;SDS011;6714;53.056;8.690;2023-06-24T16:23:23;4.50;;;4.20;;
13291;SDS011;6714;53.056;8.690;2023-06-24T16:26:05;4.70;;;4.40;;
13291;SDS011;6714;53.056;8.690;2023-06-24T16:28:48;4.40;;;4.10;;
13291;SDS011;6714;53.056;8.690;2023-06-24T16:31:31;4.47;;;4.20;;
13291;SDS011;6714;53.056;8.690;2023-06-24T16:34:13;4.32;;;4.13;;
13291;SDS011;6714;53.056;8.690;2023-06-24T16:36:56;4.78;;;4.47;;
13291;SDS011;6714;53.056;8.690;2023-06-24T16:39:38;4.60;;;4.32;;
13291;SDS011;6714;53.056;8.690;2023-06-24T16:42:20;4.10;;;3.90;;
13291;SDS011;6714;53.056;8.690;2023-06-24T16:45:04;4.68;;;4.38;;